sensor_id;sensor_type;location;lat;lon;timestamp;pressure;altitude;pressure_sealevel;temperature;humidity
9784;BME280;4931;44.874;-1.092;2023-12-20T00:00:36;102732.38;;;11.50;100.00
9784;BME280;4931;44.874;-1.092;2023-12-20T00:03:03;102885.72;;;11.59;100.00
9784;BME280;4931;44.874;-1.092;2023-12-20T00:05:28;102943.56;;;11.65;100.00
9784;BME280;4931;44.874;-1.092;2023-12-20T00:07:54;103200.63;;;11.74;100.00
9784;BME280;4931;44.874;-1.092;2023-12-20T00:10:19;103254.34;;;11.76;100.00
9784;BME280;4931;44.874;-1.092;2023-12-20T00:12:45;103286.09;;;11.72;100.00
9784;BME280;4931;44.874;-1.092;2023-12-20T00:15:11;103325.06;;;11.69;100.00
9784;BME280;4931;44.874;-1.092;2023-12-20T00:17:36;103494.31;;;11.65;100.00
9784;BME280;4931;44.874;-1.092;2023-12-20T00:20:02;103893.84;;;11.72;100.00
9784;BME280;4931;44.874;-1.092;2023-12-20T00:22:27;103932.97;;;11.74;100.00
9784;BME280;4931;44.874;-1.092;2023-12-20T00:24:53;103979.53;;;11.83;100.00
9784;BME280;4931;44.874;-1.092;2023-12-20T00:27:18;104017.66;;;11.92;100.00
9784;BME280;4931;44.874;-1.092;2023-12-20T00:29:43;104033.75;;;11.95;100.00
9784;BME280;4931;44.874;-1.092;2023-12-20T00:32:13;104028.25;;;11.95;100.00
9784;BME280;4931;44.874;-1.092;2023-12-20T00:34:38;104019.75;;;11.90;100.00
9784;BME280;4931;44.874;-1.092;2023-12-20T00:37:04;104018.47;;;11.93;100.00
9784;BME280;4931;44.874;-1.092;2023-12-20T00:39:29;104008.75;;;11.90;100.00
9784;BME280;4931;44.874;-1.092;2023-12-20T00:41:54;103986.28;;;11.80;100.00
9784;BME280;4931;44.874;-1.092;2023-12-20T00:44:20;103970.16;;;11.57;100.00
9784;BME280;4931;44.874;-1.092;2023-12-20T00:46:45;103977.38;;;11.58;100.00
9784;BME280;4931;44.874;-1.092;2023-12-20T00:49:11;103960.03;;;11.51;100.00
9784;BME280;4931;44.874;-1.092;2023-12-20T00:51:36;103960.66;;;11.53;100.00
9784;BME280;4931;44.874;-1.092;2023-12-20T00:54:02;103954.31;;;11.52;100.00
9784;BME280;4931;44.874;-1.092;2023-12-20T00:56:27;103927.44;;;11.48;100.00
9784;BME280;4931;44.874;-1.092;2023-12-20T00:58:53;103910.09;;;11.40;100.00
9784;BME280;4931;44.874;-1.092;2023-12-20T01:01:18;103905.84;;;11.38;100.00
9784;BME280;4931;44.874;-1.092;2023-12-20T01:03:43;103912.41;;;11.37;100.00
9784;BME280;4931;44.874;-1.092;2023-12-20T01:06:09;103898.03;;;11.35;100.00
9784;BME280;4931;44.874;-1.092;2023-12-20T01:08:35;103879.63;;;11.22;100.00
9784;BME280;4931;44.874;-1.092;2023-12-20T01:11:00;103870.97;;;11.32;100.00
9784;BME280;4931;44.874;-1.092;2023-12-20T01:13:26;103819.16;;;11.22;100.00
9784;BME280;4931;44.874;-1.092;2023-12-20T01:15:51;103816.59;;;11.13;100.00
9784;BME280;4931;44.874;-1.092;2023-12-20T01:18:17;103808.78;;;11.10;100.00
9784;BME280;4931;44.874;-1.092;2023-12-20T01:20:42;103806.47;;;11.21;100.00
9784;BME280;4931;44.874;-1.092;2023-12-20T01:23:08;103739.47;;;11.08;100.00
9784;BME280;4931;44.874;-1.092;2023-12-20T01:25:33;103714.75;;;11.22;100.00
9784;BME280;4931;44.874;-1.092;2023-12-20T01:27:58;103664.88;;;11.05;100.00
9784;BME280;4931;44.874;-1.092;2023-12-20T01:30:24;103638.69;;;10.89;100.00
9784;BME280;4931;44.874;-1.092;2023-12-20T01:32:50;103649.66;;;11.02;100.00
9784;BME280;4931;44.874;-1.092;2023-12-20T01:35:15;103625.78;;;10.89;100.00
9784;BME280;4931;44.874;-1.092;2023-12-20T01:37:41;103630.00;;;10.99;100.00
9784;BME280;4931;44.874;-1.092;2023-12-20T01:40:06;103632.78;;;10.92;100.00
9784;BME280;4931;44.874;-1.092;2023-12-20T01:42:33;103636.78;;;10.89;100.00
9784;BME280;4931;44.874;-1.092;2023-12-20T01:44:58;103641.22;;;10.90;100.00
9784;BME280;4931;44.874;-1.092;2023-12-20T01:47:24;103623.47;;;10.93;100.00
9784;BME280;4931;44.874;-1.092;2023-12-20T01:49:50;103613.34;;;10.73;100.00
9784;BME280;4931;44.874;-1.092;2023-12-20T01:52:16;103636.13;;;10.80;100.00
9784;BME280;4931;44.874;-1.092;2023-12-20T01:54:42;103639.53;;;10.69;100.00
9784;BME280;4931;44.874;-1.092;2023-12-20T01:57:08;103630.88;;;10.59;100.00
9784;BME280;4931;44.874;-1.092;2023-12-20T01:59:34;103655.13;;;10.62;100.00
9784;BME280;4931;44.874;-1.092;2023-12-20T02:02:00;103660.63;;;10.62;100.00
9784;BME280;4931;44.874;-1.092;2023-12-20T02:04:26;103647.94;;;10.61;100.00
9784;BME280;4931;44.874;-1.092;2023-12-20T02:06:52;103622.19;;;10.62;100.00
9784;BME280;4931;44.874;-1.092;2023-12-20T02:09:18;103608.69;;;10.54;100.00
9784;BME280;4931;44.874;-1.092;2023-12-20T02:11:44;103612.47;;;10.66;100.00
9784;BME280;4931;44.874;-1.092;2023-12-20T02:14:10;103596.22;;;10.51;100.00
9784;BME280;4931;44.874;-1.092;2023-12-20T02:16:35;103580.38;;;10.46;100.00
9784;BME280;4931;44.874;-1.092;2023-12-20T02:19:01;103589.91;;;10.51;100.00
9784;BME280;4931;44.874;-1.092;2023-12-20T02:21:32;103606.56;;;10.42;100.00
9784;BME280;4931;44.874;-1.092;2023-12-20T02:23:58;103613.13;;;10.41;100.00
9784;BME280;4931;44.874;-1.092;2023-12-20T02:26:23;103608.69;;;10.54;100.00
9784;BME280;4931;44.874;-1.092;2023-12-20T02:28:49;103601.50;;;10.46;100.00
9784;BME280;4931;44.874;-1.092;2023-12-20T02:31:14;103613.97;;;10.49;100.00
9784;BME280;4931;44.874;-1.092;2023-12-20T02:33:40;103593.84;;;10.35;100.00
9784;BME280;4931;44.874;-1.092;2023-12-20T02:36:07;103567.88;;;10.30;100.00
9784;BME280;4931;44.874;-1.092;2023-12-20T02:38:32;103568.75;;;10.31;100.00
9784;BME280;4931;44.874;-1.092;2023-12-20T02:40:59;103545.94;;;10.24;100.00
9784;BME280;4931;44.874;-1.092;2023-12-20T02:43:24;103532.22;;;10.10;100.00
9784;BME280;4931;44.874;-1.092;2023-12-20T02:45:50;103497.59;;;10.23;100.00
9784;BME280;4931;44.874;-1.092;2023-12-20T02:48:15;103473.75;;;10.03;100.00
9784;BME280;4931;44.874;-1.092;2023-12-20T02:50:41;103486.22;;;10.12;100.00
9784;BME280;4931;44.874;-1.092;2023-12-20T02:53:06;103462.59;;;9.98;100.00
9784;BME280;4931;44.874;-1.092;2023-12-20T02:55:32;103461.31;;;10.07;100.00
9784;BME280;4931;44.874;-1.092;2023-12-20T02:57:57;103441.91;;;10.16;100.00
9784;BME280;4931;44.874;-1.092;2023-12-20T03:00:23;103403.72;;;10.07;100.00
9784;BME280;4931;44.874;-1.092;2023-12-20T03:02:48;103405.63;;;10.07;100.00
9784;BME280;4931;44.874;-1.092;2023-12-20T03:05:13;103387.47;;;9.99;100.00
9784;BME280;4931;44.874;-1.092;2023-12-20T03:07:40;103381.16;;;10.05;100.00
9784;BME280;4931;44.874;-1.092;2023-12-20T03:10:06;103385.16;;;9.89;100.00
9784;BME280;4931;44.874;-1.092;2023-12-20T03:12:33;103380.50;;;9.90;100.00
9784;BME280;4931;44.874;-1.092;2023-12-20T03:14:59;103392.53;;;9.89;100.00
9784;BME280;4931;44.874;-1.092;2023-12-20T03:17:24;103395.47;;;9.94;100.00
9784;BME280;4931;44.874;-1.092;2023-12-20T03:19:49;103381.56;;;9.89;100.00
9784;BME280;4931;44.874;-1.092;2023-12-20T03:22:15;103376.72;;;9.84;100.00
9784;BME280;4931;44.874;-1.092;2023-12-20T03:24:40;103378.41;;;9.92;100.00
9784;BME280;4931;44.874;-1.092;2023-12-20T03:27:06;103349.50;;;9.96;100.00
9784;BME280;4931;44.874;-1.092;2023-12-20T03:29:31;103290.00;;;10.03;100.00
9784;BME280;4931;44.874;-1.092;2023-12-20T03:31:57;103243.63;;;9.95;100.00
9784;BME280;4931;44.874;-1.092;2023-12-20T03:34:22;103214.09;;;9.97;100.00
9784;BME280;4931;44.874;-1.092;2023-12-20T03:36:47;103170.63;;;10.07;100.00
9784;BME280;4931;44.874;-1.092;2023-12-20T03:39:13;103130.19;;;9.89;100.00
9784;BME280;4931;44.874;-1.092;2023-12-20T03:41:38;103099.84;;;9.84;100.00
9784;BME280;4931;44.874;-1.092;2023-12-20T03:44:04;103111.22;;;9.88;100.00
9784;BME280;4931;44.874;-1.092;2023-12-20T03:46:29;103085.44;;;9.95;100.00
9784;BME280;4931;44.874;-1.092;2023-12-20T03:48:55;103055.44;;;10.01;100.00
9784;BME280;4931;44.874;-1.092;2023-12-20T03:51:20;103063.09;;;9.92;100.00
9784;BME280;4931;44.874;-1.092;2023-12-20T03:53:46;103009.97;;;9.93;100.00
9784;BME280;4931;44.874;-1.092;2023-12-20T03:56:11;102989.78;;;9.80;100.00
9784;BME280;4931;44.874;-1.092;2023-12-20T03:58:37;102962.81;;;9.77;100.00
9784;BME280;4931;44.874;-1.092;2023-12-20T04:01:02;102956.97;;;9.67;100.00
9784;BME280;4931;44.874;-1.092;2023-12-20T04:03:28;102958.22;;;9.71;100.00
9784;BME280;4931;44.874;-1.092;2023-12-20T04:05:55;102951.50;;;9.67;100.00
9784;BME280;4931;44.874;-1.092;2023-12-20T04:08:21;102784.66;;;9.77;100.00
9784;BME280;4931;44.874;-1.092;2023-12-20T04:10:46;102747.00;;;9.66;100.00
9784;BME280;4931;44.874;-1.092;2023-12-20T04:13:12;102760.22;;;9.76;100.00
9784;BME280;4931;44.874;-1.092;2023-12-20T04:15:38;102757.09;;;9.72;100.00
9784;BME280;4931;44.874;-1.092;2023-12-20T04:18:04;102752.72;;;9.64;100.00
9784;BME280;4931;44.874;-1.092;2023-12-20T04:20:29;102762.84;;;9.64;100.00
9784;BME280;4931;44.874;-1.092;2023-12-20T04:22:54;102766.88;;;9.61;100.00
9784;BME280;4931;44.874;-1.092;2023-12-20T04:25:20;102758.03;;;9.59;100.00
9784;BME280;4931;44.874;-1.092;2023-12-20T04:27:45;102756.00;;;9.55;100.00
9784;BME280;4931;44.874;-1.092;2023-12-20T04:30:11;102760.22;;;9.51;100.00
9784;BME280;4931;44.874;-1.092;2023-12-20T04:32:36;102766.47;;;9.58;100.00
9784;BME280;4931;44.874;-1.092;2023-12-20T04:35:02;102758.88;;;9.60;100.00
9784;BME280;4931;44.874;-1.092;2023-12-20T04:37:28;102744.09;;;9.61;100.00
9784;BME280;4931;44.874;-1.092;2023-12-20T04:39:53;102745.56;;;9.63;100.00
9784;BME280;4931;44.874;-1.092;2023-12-20T04:42:18;102727.72;;;9.54;100.00
9784;BME280;4931;44.874;-1.092;2023-12-20T04:44:44;102736.63;;;9.50;100.00
9784;BME280;4931;44.874;-1.092;2023-12-20T04:47:09;102736.34;;;9.33;100.00
9784;BME280;4931;44.874;-1.092;2023-12-20T04:49:35;102735.97;;;9.29;100.00
9784;BME280;4931;44.874;-1.092;2023-12-20T04:52:00;102757.34;;;9.39;100.00
9784;BME280;4931;44.874;-1.092;2023-12-20T04:54:26;102759.50;;;9.37;100.00
9784;BME280;4931;44.874;-1.092;2023-12-20T04:56:51;102764.22;;;9.23;100.00
9784;BME280;4931;44.874;-1.092;2023-12-20T04:59:16;102767.59;;;9.25;100.00
9784;BME280;4931;44.874;-1.092;2023-12-20T05:01:42;102775.19;;;9.23;100.00
9784;BME280;4931;44.874;-1.092;2023-12-20T05:04:07;102771.28;;;9.37;100.00
9784;BME280;4931;44.874;-1.092;2023-12-20T05:06:33;102774.00;;;9.12;100.00
9784;BME280;4931;44.874;-1.092;2023-12-20T05:08:58;102775.91;;;9.11;100.00
9784;BME280;4931;44.874;-1.092;2023-12-20T05:11:24;102784.34;;;9.03;100.00
9784;BME280;4931;44.874;-1.092;2023-12-20T05:13:49;102777.84;;;9.04;100.00
9784;BME280;4931;44.874;-1.092;2023-12-20T05:16:15;102773.03;;;8.93;100.00
9784;BME280;4931;44.874;-1.092;2023-12-20T05:18:43;102775.09;;;9.04;100.00
9784;BME280;4931;44.874;-1.092;2023-12-20T05:21:08;102775.78;;;8.93;100.00
9784;BME280;4931;44.874;-1.092;2023-12-20T05:23:34;102780.47;;;8.86;100.00
9784;BME280;4931;44.874;-1.092;2023-12-20T05:26:00;102775.00;;;8.86;100.00
9784;BME280;4931;44.874;-1.092;2023-12-20T05:28:25;102776.28;;;8.83;100.00
9784;BME280;4931;44.874;-1.092;2023-12-20T05:30:51;102786.41;;;8.83;100.00
9784;BME280;4931;44.874;-1.092;2023-12-20T05:33:16;102775.22;;;8.84;100.00
9784;BME280;4931;44.874;-1.092;2023-12-20T05:35:42;102790.19;;;8.82;100.00
9784;BME280;4931;44.874;-1.092;2023-12-20T05:38:07;102781.78;;;8.76;100.00
9784;BME280;4931;44.874;-1.092;2023-12-20T05:40:33;102779.91;;;8.70;100.00
9784;BME280;4931;44.874;-1.092;2023-12-20T05:42:58;102789.81;;;8.71;100.00
9784;BME280;4931;44.874;-1.092;2023-12-20T05:45:23;102785.19;;;8.65;100.00
9784;BME280;4931;44.874;-1.092;2023-12-20T05:47:49;102783.34;;;8.52;100.00
9784;BME280;4931;44.874;-1.092;2023-12-20T05:50:15;102785.69;;;8.49;100.00
9784;BME280;4931;44.874;-1.092;2023-12-20T05:52:40;102780.66;;;8.45;100.00
9784;BME280;4931;44.874;-1.092;2023-12-20T05:55:06;102796.66;;;8.28;100.00
9784;BME280;4931;44.874;-1.092;2023-12-20T05:57:32;102789.53;;;8.21;100.00
9784;BME280;4931;44.874;-1.092;2023-12-20T05:59:57;102784.94;;;8.08;100.00
9784;BME280;4931;44.874;-1.092;2023-12-20T06:02:23;102795.88;;;8.08;100.00
9784;BME280;4931;44.874;-1.092;2023-12-20T06:04:48;102796.75;;;7.95;100.00
9784;BME280;4931;44.874;-1.092;2023-12-20T06:07:14;102795.50;;;7.91;100.00
9784;BME280;4931;44.874;-1.092;2023-12-20T06:09:40;102792.13;;;7.82;100.00
9784;BME280;4931;44.874;-1.092;2023-12-20T06:12:07;102790.84;;;7.85;100.00
9784;BME280;4931;44.874;-1.092;2023-12-20T06:14:32;102791.69;;;7.85;100.00
9784;BME280;4931;44.874;-1.092;2023-12-20T06:16:58;102795.91;;;7.81;100.00
9784;BME280;4931;44.874;-1.092;2023-12-20T06:19:23;102799.06;;;7.71;100.00
9784;BME280;4931;44.874;-1.092;2023-12-20T06:21:48;102800.72;;;7.65;100.00
9784;BME280;4931;44.874;-1.092;2023-12-20T06:24:14;102807.66;;;7.68;100.00
9784;BME280;4931;44.874;-1.092;2023-12-20T06:26:39;102800.56;;;7.67;100.00
9784;BME280;4931;44.874;-1.092;2023-12-20T06:29:05;102808.09;;;7.58;100.00
9784;BME280;4931;44.874;-1.092;2023-12-20T06:31:30;102800.13;;;7.57;100.00
9784;BME280;4931;44.874;-1.092;2023-12-20T06:33:58;102819.47;;;7.55;100.00
9784;BME280;4931;44.874;-1.092;2023-12-20T06:36:25;102824.91;;;7.55;100.00
9784;BME280;4931;44.874;-1.092;2023-12-20T06:38:51;102836.88;;;7.54;100.00
9784;BME280;4931;44.874;-1.092;2023-12-20T06:41:16;102826.56;;;7.50;100.00
9784;BME280;4931;44.874;-1.092;2023-12-20T06:43:42;102814.81;;;7.56;100.00
9784;BME280;4931;44.874;-1.092;2023-12-20T06:46:08;102834.81;;;7.63;100.00
9784;BME280;4931;44.874;-1.092;2023-12-20T06:48:34;102838.75;;;7.54;100.00
9784;BME280;4931;44.874;-1.092;2023-12-20T06:51:00;102841.94;;;7.71;100.00
9784;BME280;4931;44.874;-1.092;2023-12-20T06:53:29;102839.63;;;7.54;100.00
9784;BME280;4931;44.874;-1.092;2023-12-20T06:55:55;102851.38;;;7.55;100.00
9784;BME280;4931;44.874;-1.092;2023-12-20T06:58:22;102834.97;;;7.35;100.00
9784;BME280;4931;44.874;-1.092;2023-12-20T07:00:48;102850.94;;;7.44;100.00
9784;BME280;4931;44.874;-1.092;2023-12-20T07:03:13;102857.66;;;7.42;100.00
9784;BME280;4931;44.874;-1.092;2023-12-20T07:05:39;102830.75;;;7.25;100.00
9784;BME280;4931;44.874;-1.092;2023-12-20T07:08:06;102847.78;;;7.34;100.00
9784;BME280;4931;44.874;-1.092;2023-12-20T07:10:32;102840.00;;;7.31;100.00
9784;BME280;4931;44.874;-1.092;2023-12-20T07:12:57;102835.34;;;7.25;100.00
9784;BME280;4931;44.874;-1.092;2023-12-20T07:15:22;102845.63;;;7.09;100.00
9784;BME280;4931;44.874;-1.092;2023-12-20T07:17:48;102847.09;;;7.05;100.00
9784;BME280;4931;44.874;-1.092;2023-12-20T07:20:14;102852.56;;;7.05;100.00
9784;BME280;4931;44.874;-1.092;2023-12-20T07:22:39;102863.88;;;7.09;100.00
9784;BME280;4931;44.874;-1.092;2023-12-20T07:25:05;102872.28;;;7.07;100.00
9784;BME280;4931;44.874;-1.092;2023-12-20T07:27:30;102863.47;;;7.05;100.00
9784;BME280;4931;44.874;-1.092;2023-12-20T07:29:56;102871.84;;;7.04;100.00
9784;BME280;4931;44.874;-1.092;2023-12-20T07:32:21;102874.75;;;6.95;100.00
9784;BME280;4931;44.874;-1.092;2023-12-20T07:34:47;102886.91;;;6.93;100.00
9784;BME280;4931;44.874;-1.092;2023-12-20T07:37:12;102885.16;;;6.78;100.00
9784;BME280;4931;44.874;-1.092;2023-12-20T07:39:42;102878.00;;;6.71;100.00
9784;BME280;4931;44.874;-1.092;2023-12-20T07:42:08;102895.38;;;6.70;100.00
9784;BME280;4931;44.874;-1.092;2023-12-20T07:44:34;102891.41;;;6.72;100.00
9784;BME280;4931;44.874;-1.092;2023-12-20T07:47:01;102899.38;;;6.67;100.00
9784;BME280;4931;44.874;-1.092;2023-12-20T07:49:30;102903.28;;;6.58;100.00
9784;BME280;4931;44.874;-1.092;2023-12-20T07:51:56;102914.19;;;6.93;100.00
9784;BME280;4931;44.874;-1.092;2023-12-20T07:54:21;102910.06;;;6.62;100.00
9784;BME280;4931;44.874;-1.092;2023-12-20T07:56:47;102912.94;;;6.54;100.00
9784;BME280;4931;44.874;-1.092;2023-12-20T07:59:12;102906.19;;;6.50;100.00
9784;BME280;4931;44.874;-1.092;2023-12-20T08:01:38;102919.03;;;6.56;100.00
9784;BME280;4931;44.874;-1.092;2023-12-20T08:04:03;102922.16;;;6.53;100.00
9784;BME280;4931;44.874;-1.092;2023-12-20T08:06:29;102931.13;;;6.46;100.00
9784;BME280;4931;44.874;-1.092;2023-12-20T08:08:54;102936.19;;;6.50;100.00
9784;BME280;4931;44.874;-1.092;2023-12-20T08:11:20;102934.25;;;6.43;100.00
9784;BME280;4931;44.874;-1.092;2023-12-20T08:13:45;102926.53;;;6.47;100.00
9784;BME280;4931;44.874;-1.092;2023-12-20T08:16:11;102932.63;;;6.49;100.00
9784;BME280;4931;44.874;-1.092;2023-12-20T08:18:39;102933.47;;;6.50;100.00
9784;BME280;4931;44.874;-1.092;2023-12-20T08:21:04;102937.88;;;6.51;100.00
9784;BME280;4931;44.874;-1.092;2023-12-20T08:23:33;102929.94;;;6.56;100.00
9784;BME280;4931;44.874;-1.092;2023-12-20T08:25:58;102934.13;;;6.52;100.00
9784;BME280;4931;44.874;-1.092;2023-12-20T08:28:24;102934.53;;;6.55;100.00
9784;BME280;4931;44.874;-1.092;2023-12-20T08:30:49;102932.00;;;6.54;100.00
9784;BME280;4931;44.874;-1.092;2023-12-20T08:33:18;102939.81;;;6.57;100.00
9784;BME280;4931;44.874;-1.092;2023-12-20T08:35:44;102942.78;;;6.62;100.00
9784;BME280;4931;44.874;-1.092;2023-12-20T08:38:09;102954.72;;;6.61;100.00
9784;BME280;4931;44.874;-1.092;2023-12-20T08:40:35;102963.53;;;6.63;100.00
9784;BME280;4931;44.874;-1.092;2023-12-20T08:43:00;102956.66;;;7.09;100.00
9784;BME280;4931;44.874;-1.092;2023-12-20T08:45:26;102961.25;;;6.95;100.00
9784;BME280;4931;44.874;-1.092;2023-12-20T08:47:51;102956.38;;;6.90;100.00
9784;BME280;4931;44.874;-1.092;2023-12-20T08:50:17;102958.66;;;6.87;100.00
9784;BME280;4931;44.874;-1.092;2023-12-20T08:52:43;102964.09;;;6.87;100.00
9784;BME280;4931;44.874;-1.092;2023-12-20T08:55:08;102966.22;;;6.85;100.00
9784;BME280;4931;44.874;-1.092;2023-12-20T08:57:35;102965.41;;;6.91;100.00
9784;BME280;4931;44.874;-1.092;2023-12-20T09:00:01;102975.47;;;6.90;100.00
9784;BME280;4931;44.874;-1.092;2023-12-20T09:02:26;102974.47;;;6.98;100.00
9784;BME280;4931;44.874;-1.092;2023-12-20T09:04:52;102987.56;;;7.09;100.00
9784;BME280;4931;44.874;-1.092;2023-12-20T09:07:21;102969.31;;;7.17;100.00
9784;BME280;4931;44.874;-1.092;2023-12-20T09:09:47;102977.50;;;7.17;100.00
9784;BME280;4931;44.874;-1.092;2023-12-20T09:12:13;102984.47;;;7.26;100.00
9784;BME280;4931;44.874;-1.092;2023-12-20T09:14:38;102983.00;;;7.30;100.00
9784;BME280;4931;44.874;-1.092;2023-12-20T09:17:04;102981.16;;;7.37;100.00
9784;BME280;4931;44.874;-1.092;2023-12-20T09:19:29;102980.16;;;7.52;100.00
9784;BME280;4931;44.874;-1.092;2023-12-20T09:21:55;102988.81;;;7.62;100.00
9784;BME280;4931;44.874;-1.092;2023-12-20T09:24:20;102992.22;;;7.77;100.00
9784;BME280;4931;44.874;-1.092;2023-12-20T09:26:46;102993.91;;;7.85;100.00
9784;BME280;4931;44.874;-1.092;2023-12-20T09:29:11;102991.22;;;7.92;100.00
9784;BME280;4931;44.874;-1.092;2023-12-20T09:31:41;102994.56;;;8.07;100.00
9784;BME280;4931;44.874;-1.092;2023-12-20T09:34:09;102990.81;;;8.22;100.00
9784;BME280;4931;44.874;-1.092;2023-12-20T09:36:34;102997.56;;;8.39;100.00
9784;BME280;4931;44.874;-1.092;2023-12-20T09:39:01;103003.44;;;8.43;100.00
9784;BME280;4931;44.874;-1.092;2023-12-20T09:41:31;102990.19;;;8.40;100.00
9784;BME280;4931;44.874;-1.092;2023-12-20T09:44:00;103000.72;;;8.50;100.00
9784;BME280;4931;44.874;-1.092;2023-12-20T09:46:28;102999.06;;;8.49;100.00
9784;BME280;4931;44.874;-1.092;2023-12-20T09:48:59;103004.44;;;8.95;100.00
9784;BME280;4931;44.874;-1.092;2023-12-20T09:51:27;102986.50;;;9.20;100.00
9784;BME280;4931;44.874;-1.092;2023-12-20T09:53:54;102985.59;;;9.33;100.00
9784;BME280;4931;44.874;-1.092;2023-12-20T09:56:21;102985.47;;;9.07;100.00
9784;BME280;4931;44.874;-1.092;2023-12-20T09:58:47;103004.81;;;9.12;100.00
9784;BME280;4931;44.874;-1.092;2023-12-20T10:01:13;102977.41;;;9.19;100.00
9784;BME280;4931;44.874;-1.092;2023-12-20T10:03:41;102987.94;;;9.29;100.00
9784;BME280;4931;44.874;-1.092;2023-12-20T10:06:06;102994.19;;;9.50;100.00
9784;BME280;4931;44.874;-1.092;2023-12-20T10:08:32;102974.72;;;9.58;100.00
9784;BME280;4931;44.874;-1.092;2023-12-20T10:10:58;102978.22;;;9.78;100.00
9784;BME280;4931;44.874;-1.092;2023-12-20T10:13:28;102977.84;;;10.00;100.00
9784;BME280;4931;44.874;-1.092;2023-12-20T10:15:55;102964.81;;;10.21;100.00
9784;BME280;4931;44.874;-1.092;2023-12-20T10:18:21;102970.72;;;10.24;100.00
9784;BME280;4931;44.874;-1.092;2023-12-20T10:20:46;102967.97;;;10.24;100.00
9784;BME280;4931;44.874;-1.092;2023-12-20T10:23:12;102958.66;;;10.25;100.00
9784;BME280;4931;44.874;-1.092;2023-12-20T10:25:39;102949.31;;;10.33;100.00
9784;BME280;4931;44.874;-1.092;2023-12-20T10:28:09;102949.75;;;10.30;100.00
9784;BME280;4931;44.874;-1.092;2023-12-20T10:30:35;102949.66;;;10.43;100.00
9784;BME280;4931;44.874;-1.092;2023-12-20T10:33:01;102941.31;;;10.57;100.00
9784;BME280;4931;44.874;-1.092;2023-12-20T10:35:26;102946.53;;;10.65;100.00
9784;BME280;4931;44.874;-1.092;2023-12-20T10:37:55;102945.16;;;10.74;100.00
9784;BME280;4931;44.874;-1.092;2023-12-20T10:40:21;102925.31;;;10.72;100.00
9784;BME280;4931;44.874;-1.092;2023-12-20T10:42:48;102934.75;;;10.76;100.00
9784;BME280;4931;44.874;-1.092;2023-12-20T10:45:15;102939.13;;;10.84;100.00
9784;BME280;4931;44.874;-1.092;2023-12-20T10:47:44;102941.34;;;10.94;100.00
9784;BME280;4931;44.874;-1.092;2023-12-20T10:50:11;102938.38;;;10.95;100.00
9784;BME280;4931;44.874;-1.092;2023-12-20T10:52:37;102944.69;;;10.96;100.00
9784;BME280;4931;44.874;-1.092;2023-12-20T10:55:03;102933.09;;;10.94;100.00
9784;BME280;4931;44.874;-1.092;2023-12-20T10:57:29;102927.16;;;10.97;100.00
9784;BME280;4931;44.874;-1.092;2023-12-20T10:59:56;102941.03;;;11.02;100.00
9784;BME280;4931;44.874;-1.092;2023-12-20T11:02:26;102930.03;;;11.02;100.00
9784;BME280;4931;44.874;-1.092;2023-12-20T11:07:48;102926.97;;;11.10;100.00
9784;BME280;4931;44.874;-1.092;2023-12-20T11:12:47;102921.41;;;11.17;100.00
9784;BME280;4931;44.874;-1.092;2023-12-20T11:15:14;102920.88;;;11.27;100.00
9784;BME280;4931;44.874;-1.092;2023-12-20T11:17:40;102913.69;;;11.26;100.00
9784;BME280;4931;44.874;-1.092;2023-12-20T11:20:07;102922.66;;;11.33;100.00
9784;BME280;4931;44.874;-1.092;2023-12-20T11:22:36;102914.28;;;11.28;100.00
9784;BME280;4931;44.874;-1.092;2023-12-20T11:25:11;102916.91;;;11.23;100.00
9784;BME280;4931;44.874;-1.092;2023-12-20T11:27:41;102919.28;;;11.19;100.00
9784;BME280;4931;44.874;-1.092;2023-12-20T11:30:08;102901.34;;;11.17;100.00
9784;BME280;4931;44.874;-1.092;2023-12-20T11:32:37;102906.13;;;11.21;100.00
9784;BME280;4931;44.874;-1.092;2023-12-20T11:37:38;102910.94;;;11.26;100.00
9784;BME280;4931;44.874;-1.092;2023-12-20T11:40:11;102898.88;;;11.27;100.00
9784;BME280;4931;44.874;-1.092;2023-12-20T11:42:42;102887.28;;;11.25;100.00
9784;BME280;4931;44.874;-1.092;2023-12-20T11:45:15;102890.84;;;11.25;100.00
9784;BME280;4931;44.874;-1.092;2023-12-20T11:47:42;102891.22;;;11.29;100.00
9784;BME280;4931;44.874;-1.092;2023-12-20T11:50:09;102885.53;;;11.42;100.00
9784;BME280;4931;44.874;-1.092;2023-12-20T11:52:35;102876.56;;;11.35;100.00
9784;BME280;4931;44.874;-1.092;2023-12-20T11:55:00;102882.81;;;11.54;100.00
9784;BME280;4931;44.874;-1.092;2023-12-20T11:57:26;102871.75;;;11.61;100.00
9784;BME280;4931;44.874;-1.092;2023-12-20T11:59:51;102868.06;;;11.79;100.00
9784;BME280;4931;44.874;-1.092;2023-12-20T12:02:17;102869.25;;;11.83;100.00
9784;BME280;4931;44.874;-1.092;2023-12-20T12:04:42;102863.16;;;11.69;100.00
9784;BME280;4931;44.874;-1.092;2023-12-20T12:07:07;102847.00;;;11.61;100.00
9784;BME280;4931;44.874;-1.092;2023-12-20T12:09:34;102855.13;;;11.56;100.00
9784;BME280;4931;44.874;-1.092;2023-12-20T12:11:59;102856.91;;;11.62;100.00
9784;BME280;4931;44.874;-1.092;2023-12-20T12:14:25;102864.97;;;11.33;100.00
9784;BME280;4931;44.874;-1.092;2023-12-20T12:16:51;102876.91;;;11.27;100.00
9784;BME280;4931;44.874;-1.092;2023-12-20T12:19:25;102855.84;;;11.21;100.00
9784;BME280;4931;44.874;-1.092;2023-12-20T12:21:52;102873.00;;;11.16;100.00
9784;BME280;4931;44.874;-1.092;2023-12-20T12:24:29;102858.59;;;11.21;100.00
9784;BME280;4931;44.874;-1.092;2023-12-20T12:26:57;102854.84;;;11.03;100.00
9784;BME280;4931;44.874;-1.092;2023-12-20T12:29:22;102868.38;;;11.17;100.00
9784;BME280;4931;44.874;-1.092;2023-12-20T12:31:50;102866.44;;;11.17;100.00
9784;BME280;4931;44.874;-1.092;2023-12-20T12:34:15;102861.81;;;11.18;100.00
9784;BME280;4931;44.874;-1.092;2023-12-20T12:36:41;102849.25;;;11.10;100.00
9784;BME280;4931;44.874;-1.092;2023-12-20T12:39:07;102846.25;;;11.11;100.00
9784;BME280;4931;44.874;-1.092;2023-12-20T12:41:33;102840.75;;;11.11;100.00
9784;BME280;4931;44.874;-1.092;2023-12-20T12:43:58;102838.16;;;11.17;100.00
9784;BME280;4931;44.874;-1.092;2023-12-20T12:46:24;102840.56;;;11.25;100.00
9784;BME280;4931;44.874;-1.092;2023-12-20T12:48:49;102834.88;;;11.38;100.00
9784;BME280;4931;44.874;-1.092;2023-12-20T12:51:15;102820.59;;;11.60;100.00
9784;BME280;4931;44.874;-1.092;2023-12-20T12:53:41;102827.31;;;11.88;100.00
9784;BME280;4931;44.874;-1.092;2023-12-20T12:56:07;102830.09;;;12.11;100.00